Pagrindinis puslapis
METAR-TAF:

METAR-TAF

Oro uostai :

Arvidsjaur, Švedija

platuma: 65-35-25N, ilguma: 019-16-55E, Aukštis: 379 m

Dabartinis oras

Ataskaita buvo paskelbta 19 minutes, ne 04:20 UTC
Ramus vėjas
Temperatūra -9°C
Drėgmė 92%
Slėgis 1023 hPa
Matomumas 10 km arba daugiau

METAR: ESNX 280420Z AUTO 00000KT 9999 OVC098/// M09/M10 Q1023

Laikas: 05:39 (04:39 UTC)

Prognozė

Ataskaita buvo paskelbta 11 valandos ir 9 minutes, ne 17:30 UTC
Prognozė galioja nuo 27 metu 18 UTC su 27 metu 20 UTC
Vėjas 2 kt nuo kintamojo kryptimis
Matomumas 10 km arba daugiau
nėra debesų žemiau 1500 m ir nėra kamuolinių lietaus debesų
Tikimybė 40%
nuo 27 metu 18 UTC su 27 metu 20 UTC
Matomumas: 1200 m
Rūkas lopais

TAF: ESNX 271730Z 2718/2720 VRB02KT CAVOK PROB40 2718/2720 1200 BCFG

Orai ataskaitas ir orų prognozės (METAR, TAF).

turimą stotys yra geltonos ir raudonos taškus žemėlapyje.

Perkelti pele per norėdami pamatyti stoties vardą.

Tada spustelėkite, norėdami matyti oro stebėjimo ir prognozės.

Norėdami pakeisti žemėlapį: spustelėkite ant žalios mygtukų su juodo kryžiaus žemyn,; žalią mygtuką su brūkšneliu, jei norite nutolinti; arba žalių rodyklių gretimoms žemėlapius.


METAR-TAF: